sensor_id;sensor_type;location;lat;lon;timestamp;P1;durP1;ratioP1;P2;durP2;ratioP2
79361;SDS011;68830;47.566;19.012;2023-04-06T00:02:19;6.53;;;4.43;;
79361;SDS011;68830;47.566;19.012;2023-04-06T00:05:22;8.25;;;5.78;;
79361;SDS011;68830;47.566;19.012;2023-04-06T00:08:25;11.63;;;6.05;;
79361;SDS011;68830;47.566;19.012;2023-04-06T00:11:27;9.00;;;5.00;;
79361;SDS011;68830;47.566;19.012;2023-04-06T00:14:30;7.22;;;4.57;;
79361;SDS011;68830;47.566;19.012;2023-04-06T00:17:33;5.78;;;4.20;;
79361;SDS011;68830;47.566;19.012;2023-04-06T00:20:34;6.15;;;4.78;;
79361;SDS011;68830;47.566;19.012;2023-04-06T00:23:36;8.15;;;4.45;;
79361;SDS011;68830;47.566;19.012;2023-04-06T00:26:39;6.50;;;4.80;;
79361;SDS011;68830;47.566;19.012;2023-04-06T00:29:43;7.10;;;5.07;;
79361;SDS011;68830;47.566;19.012;2023-04-06T00:32:46;8.93;;;5.25;;
79361;SDS011;68830;47.566;19.012;2023-04-06T00:35:47;10.68;;;6.85;;
79361;SDS011;68830;47.566;19.012;2023-04-06T00:38:49;9.40;;;5.65;;
79361;SDS011;68830;47.566;19.012;2023-04-06T00:41:52;8.40;;;6.10;;
79361;SDS011;68830;47.566;19.012;2023-04-06T00:44:56;9.15;;;5.40;;
79361;SDS011;68830;47.566;19.012;2023-04-06T00:47:59;10.65;;;6.15;;
79361;SDS011;68830;47.566;19.012;2023-04-06T00:51:03;9.10;;;5.60;;
79361;SDS011;68830;47.566;19.012;2023-04-06T00:54:05;8.77;;;5.80;;
79361;SDS011;68830;47.566;19.012;2023-04-06T00:57:07;10.30;;;6.43;;
79361;SDS011;68830;47.566;19.012;2023-04-06T01:00:12;9.57;;;5.60;;
79361;SDS011;68830;47.566;19.012;2023-04-06T01:03:14;9.88;;;5.70;;
79361;SDS011;68830;47.566;19.012;2023-04-06T01:06:17;8.65;;;6.25;;
79361;SDS011;68830;47.566;19.012;2023-04-06T01:09:19;10.88;;;6.90;;
79361;SDS011;68830;47.566;19.012;2023-04-06T01:12:22;7.40;;;6.03;;
79361;SDS011;68830;47.566;19.012;2023-04-06T01:15:26;6.68;;;5.53;;
79361;SDS011;68830;47.566;19.012;2023-04-06T01:18:29;9.05;;;6.45;;
79361;SDS011;68830;47.566;19.012;2023-04-06T01:21:31;9.48;;;6.45;;
79361;SDS011;68830;47.566;19.012;2023-04-06T01:24:35;8.23;;;5.72;;
79361;SDS011;68830;47.566;19.012;2023-04-06T01:27:37;9.70;;;6.10;;
79361;SDS011;68830;47.566;19.012;2023-04-06T01:30:39;8.32;;;5.47;;
79361;SDS011;68830;47.566;19.012;2023-04-06T01:33:41;8.85;;;6.32;;
79361;SDS011;68830;47.566;19.012;2023-04-06T01:36:43;8.18;;;6.00;;
79361;SDS011;68830;47.566;19.012;2023-04-06T01:39:47;9.23;;;6.25;;
79361;SDS011;68830;47.566;19.012;2023-04-06T01:42:49;9.07;;;5.38;;
79361;SDS011;68830;47.566;19.012;2023-04-06T01:45:51;8.85;;;5.10;;
79361;SDS011;68830;47.566;19.012;2023-04-06T01:48:53;7.82;;;4.95;;
79361;SDS011;68830;47.566;19.012;2023-04-06T01:51:55;9.23;;;5.20;;
79361;SDS011;68830;47.566;19.012;2023-04-06T01:54:59;6.53;;;5.38;;
79361;SDS011;68830;47.566;19.012;2023-04-06T01:58:01;7.40;;;5.07;;
79361;SDS011;68830;47.566;19.012;2023-04-06T02:01:02;8.48;;;5.55;;
79361;SDS011;68830;47.566;19.012;2023-04-06T02:04:05;7.35;;;5.28;;
79361;SDS011;68830;47.566;19.012;2023-04-06T02:07:07;8.10;;;5.35;;
79361;SDS011;68830;47.566;19.012;2023-04-06T02:10:12;7.82;;;5.72;;
79361;SDS011;68830;47.566;19.012;2023-04-06T02:13:15;6.10;;;4.78;;
79361;SDS011;68830;47.566;19.012;2023-04-06T02:16:17;10.40;;;5.95;;
79361;SDS011;68830;47.566;19.012;2023-04-06T02:19:19;9.20;;;5.90;;
79361;SDS011;68830;47.566;19.012;2023-04-06T02:22:21;7.68;;;5.32;;
79361;SDS011;68830;47.566;19.012;2023-04-06T02:25:25;9.52;;;6.10;;
79361;SDS011;68830;47.566;19.012;2023-04-06T02:28:27;10.30;;;5.75;;
79361;SDS011;68830;47.566;19.012;2023-04-06T02:31:29;8.30;;;5.35;;
79361;SDS011;68830;47.566;19.012;2023-04-06T02:34:31;8.88;;;5.65;;
79361;SDS011;68830;47.566;19.012;2023-04-06T02:37:33;9.88;;;5.78;;
79361;SDS011;68830;47.566;19.012;2023-04-06T02:40:36;11.07;;;6.60;;
79361;SDS011;68830;47.566;19.012;2023-04-06T02:43:38;8.73;;;6.22;;
79361;SDS011;68830;47.566;19.012;2023-04-06T02:46:41;10.23;;;5.60;;
79361;SDS011;68830;47.566;19.012;2023-04-06T02:49:43;10.40;;;6.47;;
79361;SDS011;68830;47.566;19.012;2023-04-06T02:52:48;7.45;;;6.05;;
79361;SDS011;68830;47.566;19.012;2023-04-06T02:55:52;9.68;;;5.97;;
79361;SDS011;68830;47.566;19.012;2023-04-06T02:58:53;9.55;;;5.72;;
79361;SDS011;68830;47.566;19.012;2023-04-06T03:01:55;8.13;;;6.20;;
79361;SDS011;68830;47.566;19.012;2023-04-06T03:04:57;7.63;;;5.55;;
79361;SDS011;68830;47.566;19.012;2023-04-06T03:07:59;9.25;;;5.88;;
79361;SDS011;68830;47.566;19.012;2023-04-06T03:11:03;9.90;;;6.13;;
79361;SDS011;68830;47.566;19.012;2023-04-06T03:14:05;10.05;;;6.30;;
79361;SDS011;68830;47.566;19.012;2023-04-06T03:17:07;13.05;;;6.93;;
79361;SDS011;68830;47.566;19.012;2023-04-06T03:20:09;8.70;;;5.88;;
79361;SDS011;68830;47.566;19.012;2023-04-06T03:23:11;8.20;;;6.05;;
79361;SDS011;68830;47.566;19.012;2023-04-06T03:26:15;7.25;;;6.35;;
79361;SDS011;68830;47.566;19.012;2023-04-06T03:29:17;13.63;;;5.95;;
79361;SDS011;68830;47.566;19.012;2023-04-06T03:32:19;12.48;;;6.82;;
79361;SDS011;68830;47.566;19.012;2023-04-06T03:35:21;11.25;;;7.15;;
79361;SDS011;68830;47.566;19.012;2023-04-06T03:38:23;10.30;;;6.18;;
79361;SDS011;68830;47.566;19.012;2023-04-06T03:41:26;12.70;;;6.85;;
79361;SDS011;68830;47.566;19.012;2023-04-06T03:44:28;11.18;;;6.43;;
79361;SDS011;68830;47.566;19.012;2023-04-06T03:47:30;9.38;;;6.32;;
79361;SDS011;68830;47.566;19.012;2023-04-06T03:50:32;11.13;;;7.15;;
79361;SDS011;68830;47.566;19.012;2023-04-06T03:53:34;10.32;;;5.88;;
79361;SDS011;68830;47.566;19.012;2023-04-06T03:56:39;7.32;;;6.03;;
79361;SDS011;68830;47.566;19.012;2023-04-06T03:59:41;10.93;;;6.88;;
79361;SDS011;68830;47.566;19.012;2023-04-06T04:02:43;9.32;;;6.65;;
79361;SDS011;68830;47.566;19.012;2023-04-06T04:05:45;9.93;;;6.38;;
79361;SDS011;68830;47.566;19.012;2023-04-06T04:08:47;9.15;;;7.53;;
79361;SDS011;68830;47.566;19.012;2023-04-06T04:11:50;10.20;;;7.22;;
79361;SDS011;68830;47.566;19.012;2023-04-06T04:14:52;7.30;;;5.10;;
79361;SDS011;68830;47.566;19.012;2023-04-06T04:17:54;10.63;;;7.20;;
79361;SDS011;68830;47.566;19.012;2023-04-06T04:20:56;11.25;;;6.32;;
79361;SDS011;68830;47.566;19.012;2023-04-06T04:23:58;11.43;;;5.30;;
79361;SDS011;68830;47.566;19.012;2023-04-06T04:27:01;7.78;;;4.97;;
79361;SDS011;68830;47.566;19.012;2023-04-06T04:30:05;7.90;;;5.50;;
79361;SDS011;68830;47.566;19.012;2023-04-06T04:33:08;9.02;;;5.07;;
79361;SDS011;68830;47.566;19.012;2023-04-06T04:36:10;8.68;;;5.95;;
79361;SDS011;68830;47.566;19.012;2023-04-06T04:39:12;7.70;;;5.60;;
79361;SDS011;68830;47.566;19.012;2023-04-06T04:42:15;11.95;;;6.78;;
79361;SDS011;68830;47.566;19.012;2023-04-06T04:45:17;9.23;;;6.00;;
79361;SDS011;68830;47.566;19.012;2023-04-06T04:48:19;7.38;;;4.93;;
79361;SDS011;68830;47.566;19.012;2023-04-06T04:51:21;8.95;;;6.03;;
79361;SDS011;68830;47.566;19.012;2023-04-06T04:54:23;7.75;;;6.18;;
79361;SDS011;68830;47.566;19.012;2023-04-06T04:57:26;9.82;;;6.22;;
79361;SDS011;68830;47.566;19.012;2023-04-06T05:00:28;8.27;;;6.35;;
79361;SDS011;68830;47.566;19.012;2023-04-06T05:03:31;8.93;;;6.60;;
79361;SDS011;68830;47.566;19.012;2023-04-06T05:06:36;11.00;;;6.95;;
79361;SDS011;68830;47.566;19.012;2023-04-06T05:09:38;11.70;;;8.18;;
79361;SDS011;68830;47.566;19.012;2023-04-06T05:12:42;11.00;;;7.35;;
79361;SDS011;68830;47.566;19.012;2023-04-06T05:15:44;6.93;;;5.70;;
79361;SDS011;68830;47.566;19.012;2023-04-06T05:18:47;10.88;;;7.32;;
79361;SDS011;68830;47.566;19.012;2023-04-06T05:21:49;11.85;;;7.07;;
79361;SDS011;68830;47.566;19.012;2023-04-06T05:24:51;9.57;;;6.95;;
79361;SDS011;68830;47.566;19.012;2023-04-06T05:27:54;9.10;;;6.53;;
79361;SDS011;68830;47.566;19.012;2023-04-06T05:30:56;11.23;;;6.72;;
79361;SDS011;68830;47.566;19.012;2023-04-06T05:33:58;12.85;;;7.93;;
79361;SDS011;68830;47.566;19.012;2023-04-06T05:37:01;12.15;;;8.85;;
79361;SDS011;68830;47.566;19.012;2023-04-06T05:40:03;13.27;;;9.20;;
79361;SDS011;68830;47.566;19.012;2023-04-06T05:43:07;9.80;;;7.22;;
79361;SDS011;68830;47.566;19.012;2023-04-06T05:46:09;12.52;;;7.95;;
79361;SDS011;68830;47.566;19.012;2023-04-06T05:49:12;13.05;;;7.72;;
79361;SDS011;68830;47.566;19.012;2023-04-06T05:52:14;9.10;;;8.13;;
79361;SDS011;68830;47.566;19.012;2023-04-06T05:55:16;11.73;;;7.90;;
79361;SDS011;68830;47.566;19.012;2023-04-06T05:58:19;8.88;;;7.28;;
79361;SDS011;68830;47.566;19.012;2023-04-06T06:01:21;15.20;;;6.88;;
79361;SDS011;68830;47.566;19.012;2023-04-06T06:04:23;11.73;;;9.95;;
79361;SDS011;68830;47.566;19.012;2023-04-06T06:07:25;11.05;;;9.95;;
79361;SDS011;68830;47.566;19.012;2023-04-06T06:10:27;11.70;;;9.85;;
79361;SDS011;68830;47.566;19.012;2023-04-06T06:13:30;11.73;;;9.70;;
79361;SDS011;68830;47.566;19.012;2023-04-06T06:16:32;14.30;;;10.02;;
79361;SDS011;68830;47.566;19.012;2023-04-06T06:19:34;11.70;;;10.40;;
79361;SDS011;68830;47.566;19.012;2023-04-06T06:22:36;12.13;;;8.90;;
79361;SDS011;68830;47.566;19.012;2023-04-06T06:25:38;10.60;;;9.30;;
79361;SDS011;68830;47.566;19.012;2023-04-06T06:28:42;13.55;;;10.52;;
79361;SDS011;68830;47.566;19.012;2023-04-06T06:31:43;9.52;;;7.50;;
79361;SDS011;68830;47.566;19.012;2023-04-06T06:34:45;8.35;;;6.20;;
79361;SDS011;68830;47.566;19.012;2023-04-06T06:37:47;10.70;;;8.07;;
79361;SDS011;68830;47.566;19.012;2023-04-06T06:40:49;10.70;;;7.25;;
79361;SDS011;68830;47.566;19.012;2023-04-06T06:43:52;9.25;;;6.90;;
79361;SDS011;68830;47.566;19.012;2023-04-06T06:46:54;9.25;;;6.80;;
79361;SDS011;68830;47.566;19.012;2023-04-06T06:49:56;13.55;;;8.38;;
79361;SDS011;68830;47.566;19.012;2023-04-06T06:52:58;9.15;;;7.32;;
79361;SDS011;68830;47.566;19.012;2023-04-06T06:56:00;11.85;;;8.20;;
79361;SDS011;68830;47.566;19.012;2023-04-06T06:59:04;13.10;;;8.30;;
79361;SDS011;68830;47.566;19.012;2023-04-06T07:02:07;11.88;;;9.27;;
79361;SDS011;68830;47.566;19.012;2023-04-06T07:05:09;12.05;;;8.73;;
79361;SDS011;68830;47.566;19.012;2023-04-06T07:08:27;14.85;;;8.52;;
79361;SDS011;68830;47.566;19.012;2023-04-06T07:11:29;13.18;;;9.02;;
79361;SDS011;68830;47.566;19.012;2023-04-06T07:14:33;9.90;;;8.93;;
79361;SDS011;68830;47.566;19.012;2023-04-06T07:17:35;11.70;;;8.25;;
79361;SDS011;68830;47.566;19.012;2023-04-06T07:20:37;14.35;;;9.88;;
79361;SDS011;68830;47.566;19.012;2023-04-06T07:23:39;10.80;;;8.55;;
79361;SDS011;68830;47.566;19.012;2023-04-06T07:26:44;10.10;;;7.50;;
79361;SDS011;68830;47.566;19.012;2023-04-06T07:29:47;10.13;;;7.25;;
79361;SDS011;68830;47.566;19.012;2023-04-06T07:32:49;10.35;;;7.32;;
79361;SDS011;68830;47.566;19.012;2023-04-06T07:35:51;12.20;;;8.18;;
79361;SDS011;68830;47.566;19.012;2023-04-06T07:38:53;11.60;;;8.00;;
79361;SDS011;68830;47.566;19.012;2023-04-06T07:41:55;11.13;;;7.20;;
79361;SDS011;68830;47.566;19.012;2023-04-06T07:44:59;9.27;;;6.70;;
79361;SDS011;68830;47.566;19.012;2023-04-06T07:48:01;9.00;;;7.13;;
79361;SDS011;68830;47.566;19.012;2023-04-06T07:51:03;9.80;;;7.72;;
79361;SDS011;68830;47.566;19.012;2023-04-06T07:54:06;10.48;;;7.55;;
79361;SDS011;68830;47.566;19.012;2023-04-06T07:57:08;14.27;;;8.38;;
79361;SDS011;68830;47.566;19.012;2023-04-06T08:00:12;11.30;;;8.85;;
79361;SDS011;68830;47.566;19.012;2023-04-06T08:03:15;10.07;;;7.47;;
79361;SDS011;68830;47.566;19.012;2023-04-06T08:06:18;8.68;;;7.47;;
79361;SDS011;68830;47.566;19.012;2023-04-06T08:09:20;10.98;;;7.88;;
79361;SDS011;68830;47.566;19.012;2023-04-06T08:12:22;10.98;;;7.10;;
79361;SDS011;68830;47.566;19.012;2023-04-06T08:15:25;11.02;;;7.35;;
79361;SDS011;68830;47.566;19.012;2023-04-06T08:18:27;9.68;;;7.75;;
79361;SDS011;68830;47.566;19.012;2023-04-06T08:21:31;10.32;;;7.95;;
79361;SDS011;68830;47.566;19.012;2023-04-06T08:24:33;7.95;;;7.00;;
79361;SDS011;68830;47.566;19.012;2023-04-06T08:27:35;12.30;;;7.63;;
79361;SDS011;68830;47.566;19.012;2023-04-06T08:30:40;7.80;;;6.85;;
79361;SDS011;68830;47.566;19.012;2023-04-06T08:33:43;9.07;;;7.05;;
79361;SDS011;68830;47.566;19.012;2023-04-06T08:36:45;9.30;;;7.60;;
79361;SDS011;68830;47.566;19.012;2023-04-06T08:39:48;9.02;;;6.32;;
79361;SDS011;68830;47.566;19.012;2023-04-06T08:42:50;10.90;;;6.68;;
79361;SDS011;68830;47.566;19.012;2023-04-06T08:45:57;11.65;;;6.85;;
79361;SDS011;68830;47.566;19.012;2023-04-06T08:49:01;9.05;;;6.35;;
79361;SDS011;68830;47.566;19.012;2023-04-06T08:52:05;8.43;;;6.47;;
79361;SDS011;68830;47.566;19.012;2023-04-06T08:55:08;7.68;;;6.03;;
79361;SDS011;68830;47.566;19.012;2023-04-06T08:58:10;9.05;;;5.78;;
79361;SDS011;68830;47.566;19.012;2023-04-06T09:01:14;7.07;;;6.20;;
79361;SDS011;68830;47.566;19.012;2023-04-06T09:04:18;8.93;;;6.30;;
79361;SDS011;68830;47.566;19.012;2023-04-06T09:07:21;8.30;;;6.50;;
79361;SDS011;68830;47.566;19.012;2023-04-06T09:10:23;7.75;;;6.65;;
79361;SDS011;68830;47.566;19.012;2023-04-06T09:13:26;7.72;;;6.43;;
79361;SDS011;68830;47.566;19.012;2023-04-06T09:16:38;6.35;;;5.35;;
79361;SDS011;68830;47.566;19.012;2023-04-06T09:19:45;7.90;;;6.43;;
79361;SDS011;68830;47.566;19.012;2023-04-06T09:22:47;7.35;;;5.72;;
79361;SDS011;68830;47.566;19.012;2023-04-06T09:25:50;6.82;;;5.03;;
79361;SDS011;68830;47.566;19.012;2023-04-06T09:28:52;7.55;;;5.25;;
79361;SDS011;68830;47.566;19.012;2023-04-06T09:32:03;7.40;;;5.60;;
79361;SDS011;68830;47.566;19.012;2023-04-06T09:35:06;8.00;;;7.20;;
79361;SDS011;68830;47.566;19.012;2023-04-06T09:38:10;6.03;;;5.43;;
79361;SDS011;68830;47.566;19.012;2023-04-06T09:41:17;7.43;;;6.15;;
79361;SDS011;68830;47.566;19.012;2023-04-06T09:44:22;8.02;;;4.95;;
79361;SDS011;68830;47.566;19.012;2023-04-06T09:47:26;8.13;;;5.47;;
79361;SDS011;68830;47.566;19.012;2023-04-06T09:50:30;6.95;;;5.03;;
79361;SDS011;68830;47.566;19.012;2023-04-06T09:53:34;6.13;;;5.45;;
79361;SDS011;68830;47.566;19.012;2023-04-06T09:56:45;8.80;;;6.22;;
79361;SDS011;68830;47.566;19.012;2023-04-06T09:59:48;8.38;;;5.65;;
79361;SDS011;68830;47.566;19.012;2023-04-06T10:02:58;8.35;;;6.25;;
79361;SDS011;68830;47.566;19.012;2023-04-06T10:06:10;5.93;;;4.38;;
79361;SDS011;68830;47.566;19.012;2023-04-06T10:09:16;6.15;;;4.90;;
79361;SDS011;68830;47.566;19.012;2023-04-06T10:12:18;5.97;;;4.50;;
79361;SDS011;68830;47.566;19.012;2023-04-06T10:15:21;6.03;;;4.38;;
79361;SDS011;68830;47.566;19.012;2023-04-06T10:18:25;6.10;;;4.70;;
79361;SDS011;68830;47.566;19.012;2023-04-06T10:21:27;6.53;;;4.88;;
79361;SDS011;68830;47.566;19.012;2023-04-06T10:24:32;7.20;;;5.43;;
79361;SDS011;68830;47.566;19.012;2023-04-06T10:27:33;8.68;;;4.90;;
79361;SDS011;68830;47.566;19.012;2023-04-06T10:30:41;5.82;;;4.82;;
79361;SDS011;68830;47.566;19.012;2023-04-06T10:33:54;6.65;;;4.80;;
79361;SDS011;68830;47.566;19.012;2023-04-06T10:36:56;7.22;;;4.75;;
79361;SDS011;68830;47.566;19.012;2023-04-06T10:39:58;6.25;;;4.90;;
79361;SDS011;68830;47.566;19.012;2023-04-06T10:43:07;7.32;;;4.40;;
79361;SDS011;68830;47.566;19.012;2023-04-06T10:46:10;7.22;;;5.90;;
79361;SDS011;68830;47.566;19.012;2023-04-06T10:49:13;7.82;;;4.20;;
79361;SDS011;68830;47.566;19.012;2023-04-06T10:52:15;6.07;;;5.47;;
79361;SDS011;68830;47.566;19.012;2023-04-06T10:55:17;5.55;;;4.35;;
79361;SDS011;68830;47.566;19.012;2023-04-06T10:58:24;6.07;;;4.90;;
79361;SDS011;68830;47.566;19.012;2023-04-06T11:01:26;6.32;;;4.60;;
79361;SDS011;68830;47.566;19.012;2023-04-06T11:04:30;7.13;;;5.25;;
79361;SDS011;68830;47.566;19.012;2023-04-06T11:07:32;6.18;;;4.25;;
79361;SDS011;68830;47.566;19.012;2023-04-06T11:10:34;4.32;;;3.70;;
79361;SDS011;68830;47.566;19.012;2023-04-06T11:13:40;4.57;;;3.80;;
79361;SDS011;68830;47.566;19.012;2023-04-06T11:16:43;7.40;;;4.45;;
79361;SDS011;68830;47.566;19.012;2023-04-06T11:19:50;9.50;;;5.00;;
79361;SDS011;68830;47.566;19.012;2023-04-06T11:22:52;6.38;;;5.05;;
79361;SDS011;68830;47.566;19.012;2023-04-06T11:25:54;7.53;;;5.60;;
79361;SDS011;68830;47.566;19.012;2023-04-06T11:28:56;6.38;;;4.75;;
79361;SDS011;68830;47.566;19.012;2023-04-06T11:31:59;7.45;;;5.53;;
79361;SDS011;68830;47.566;19.012;2023-04-06T11:35:03;8.20;;;4.93;;
79361;SDS011;68830;47.566;19.012;2023-04-06T11:38:05;8.45;;;5.75;;
79361;SDS011;68830;47.566;19.012;2023-04-06T11:41:07;6.80;;;5.07;;
79361;SDS011;68830;47.566;19.012;2023-04-06T11:44:09;7.07;;;5.13;;
79361;SDS011;68830;47.566;19.012;2023-04-06T11:47:12;6.45;;;4.72;;
79361;SDS011;68830;47.566;19.012;2023-04-06T11:50:15;6.63;;;4.85;;
79361;SDS011;68830;47.566;19.012;2023-04-06T11:53:17;5.95;;;5.15;;
79361;SDS011;68830;47.566;19.012;2023-04-06T11:56:23;8.10;;;5.10;;
79361;SDS011;68830;47.566;19.012;2023-04-06T11:59:26;6.68;;;4.88;;
79361;SDS011;68830;47.566;19.012;2023-04-06T12:02:28;4.88;;;4.38;;
79361;SDS011;68830;47.566;19.012;2023-04-06T12:05:32;9.45;;;5.13;;
79361;SDS011;68830;47.566;19.012;2023-04-06T12:08:34;8.07;;;5.38;;
79361;SDS011;68830;47.566;19.012;2023-04-06T12:11:36;8.50;;;4.95;;
79361;SDS011;68830;47.566;19.012;2023-04-06T12:14:38;5.35;;;4.70;;
79361;SDS011;68830;47.566;19.012;2023-04-06T12:17:41;9.68;;;4.85;;
79361;SDS011;68830;47.566;19.012;2023-04-06T12:20:46;5.82;;;4.70;;
79361;SDS011;68830;47.566;19.012;2023-04-06T12:23:48;4.88;;;4.38;;
79361;SDS011;68830;47.566;19.012;2023-04-06T12:26:50;10.07;;;4.93;;
79361;SDS011;68830;47.566;19.012;2023-04-06T12:30:03;8.32;;;4.53;;
79361;SDS011;68830;47.566;19.012;2023-04-06T12:33:06;4.97;;;4.47;;
79361;SDS011;68830;47.566;19.012;2023-04-06T12:36:12;6.10;;;4.65;;
79361;SDS011;68830;47.566;19.012;2023-04-06T12:39:15;6.47;;;4.03;;
79361;SDS011;68830;47.566;19.012;2023-04-06T12:42:20;7.15;;;5.18;;
79361;SDS011;68830;47.566;19.012;2023-04-06T12:45:22;7.43;;;5.85;;
79361;SDS011;68830;47.566;19.012;2023-04-06T12:48:24;5.95;;;5.35;;
79361;SDS011;68830;47.566;19.012;2023-04-06T12:51:28;7.47;;;4.68;;
79361;SDS011;68830;47.566;19.012;2023-04-06T12:54:30;6.85;;;4.80;;
79361;SDS011;68830;47.566;19.012;2023-04-06T12:57:32;4.88;;;4.38;;
79361;SDS011;68830;47.566;19.012;2023-04-06T13:00:34;6.28;;;4.57;;
79361;SDS011;68830;47.566;19.012;2023-04-06T13:03:39;6.65;;;4.32;;
79361;SDS011;68830;47.566;19.012;2023-04-06T13:06:43;7.20;;;5.65;;
79361;SDS011;68830;47.566;19.012;2023-04-06T13:09:45;5.68;;;4.60;;
79361;SDS011;68830;47.566;19.012;2023-04-06T13:12:48;7.45;;;5.18;;
79361;SDS011;68830;47.566;19.012;2023-04-06T13:15:51;6.57;;;4.35;;
79361;SDS011;68830;47.566;19.012;2023-04-06T13:18:53;7.45;;;5.47;;
79361;SDS011;68830;47.566;19.012;2023-04-06T13:21:56;6.18;;;4.72;;
79361;SDS011;68830;47.566;19.012;2023-04-06T13:24:58;5.72;;;4.50;;
79361;SDS011;68830;47.566;19.012;2023-04-06T13:28:00;4.78;;;4.20;;
79361;SDS011;68830;47.566;19.012;2023-04-06T13:31:02;6.03;;;4.60;;
79361;SDS011;68830;47.566;19.012;2023-04-06T13:34:05;5.93;;;4.63;;
79361;SDS011;68830;47.566;19.012;2023-04-06T13:37:08;6.95;;;4.85;;
79361;SDS011;68830;47.566;19.012;2023-04-06T13:40:10;8.30;;;4.53;;
79361;SDS011;68830;47.566;19.012;2023-04-06T13:43:12;7.20;;;5.20;;
79361;SDS011;68830;47.566;19.012;2023-04-06T13:46:15;5.63;;;4.90;;
79361;SDS011;68830;47.566;19.012;2023-04-06T13:49:18;6.68;;;4.65;;
79361;SDS011;68830;47.566;19.012;2023-04-06T13:52:21;6.93;;;5.07;;
79361;SDS011;68830;47.566;19.012;2023-04-06T13:55:23;4.93;;;4.30;;
79361;SDS011;68830;47.566;19.012;2023-04-06T13:58:25;5.22;;;4.72;;
79361;SDS011;68830;47.566;19.012;2023-04-06T14:01:27;5.80;;;5.05;;
79361;SDS011;68830;47.566;19.012;2023-04-06T14:04:29;5.55;;;4.00;;
79361;SDS011;68830;47.566;19.012;2023-04-06T14:07:33;5.93;;;4.70;;
79361;SDS011;68830;47.566;19.012;2023-04-06T14:10:36;4.68;;;3.92;;
79361;SDS011;68830;47.566;19.012;2023-04-06T14:13:39;6.55;;;3.63;;
79361;SDS011;68830;47.566;19.012;2023-04-06T14:16:41;5.80;;;3.75;;
79361;SDS011;68830;47.566;19.012;2023-04-06T14:19:47;6.72;;;4.10;;
79361;SDS011;68830;47.566;19.012;2023-04-06T14:22:51;4.40;;;3.88;;
79361;SDS011;68830;47.566;19.012;2023-04-06T14:26:00;6.10;;;4.10;;
79361;SDS011;68830;47.566;19.012;2023-04-06T14:29:04;6.72;;;4.78;;
79361;SDS011;68830;47.566;19.012;2023-04-06T14:32:07;5.72;;;4.18;;
79361;SDS011;68830;47.566;19.012;2023-04-06T14:35:09;4.70;;;4.05;;
79361;SDS011;68830;47.566;19.012;2023-04-06T14:38:13;5.43;;;4.93;;
79361;SDS011;68830;47.566;19.012;2023-04-06T14:41:15;5.65;;;3.63;;
79361;SDS011;68830;47.566;19.012;2023-04-06T14:44:18;4.45;;;3.60;;
79361;SDS011;68830;47.566;19.012;2023-04-06T14:47:20;6.57;;;4.32;;
79361;SDS011;68830;47.566;19.012;2023-04-06T14:50:23;4.57;;;4.15;;
79361;SDS011;68830;47.566;19.012;2023-04-06T14:53:26;5.72;;;3.85;;
79361;SDS011;68830;47.566;19.012;2023-04-06T14:56:29;9.18;;;4.47;;
79361;SDS011;68830;47.566;19.012;2023-04-06T14:59:32;6.18;;;4.18;;
79361;SDS011;68830;47.566;19.012;2023-04-06T15:02:39;5.32;;;4.10;;
79361;SDS011;68830;47.566;19.012;2023-04-06T15:05:41;4.68;;;4.10;;
79361;SDS011;68830;47.566;19.012;2023-04-06T15:08:45;5.82;;;5.00;;
79361;SDS011;68830;47.566;19.012;2023-04-06T15:11:48;6.63;;;4.97;;
79361;SDS011;68830;47.566;19.012;2023-04-06T15:14:50;5.97;;;4.82;;
79361;SDS011;68830;47.566;19.012;2023-04-06T15:17:51;6.47;;;4.75;;
79361;SDS011;68830;47.566;19.012;2023-04-06T15:20:53;7.53;;;5.70;;
79361;SDS011;68830;47.566;19.012;2023-04-06T15:23:57;6.82;;;5.20;;
79361;SDS011;68830;47.566;19.012;2023-04-06T15:26:59;6.45;;;5.50;;
79361;SDS011;68830;47.566;19.012;2023-04-06T15:30:01;8.55;;;6.03;;
79361;SDS011;68830;47.566;19.012;2023-04-06T15:33:04;6.93;;;5.45;;
79361;SDS011;68830;47.566;19.012;2023-04-06T15:36:23;7.53;;;5.70;;
79361;SDS011;68830;47.566;19.012;2023-04-06T15:39:29;10.15;;;6.03;;
79361;SDS011;68830;47.566;19.012;2023-04-06T15:42:31;8.90;;;6.20;;
79361;SDS011;68830;47.566;19.012;2023-04-06T15:45:32;6.38;;;5.72;;
79361;SDS011;68830;47.566;19.012;2023-04-06T15:48:35;6.85;;;5.53;;
79361;SDS011;68830;47.566;19.012;2023-04-06T15:51:37;8.02;;;6.18;;
79361;SDS011;68830;47.566;19.012;2023-04-06T15:54:40;7.70;;;5.22;;
79361;SDS011;68830;47.566;19.012;2023-04-06T15:57:42;6.88;;;5.57;;
79361;SDS011;68830;47.566;19.012;2023-04-06T16:00:44;6.43;;;5.00;;
79361;SDS011;68830;47.566;19.012;2023-04-06T16:03:46;6.80;;;5.35;;
79361;SDS011;68830;47.566;19.012;2023-04-06T16:06:48;7.10;;;5.43;;
79361;SDS011;68830;47.566;19.012;2023-04-06T16:09:52;8.88;;;5.38;;
79361;SDS011;68830;47.566;19.012;2023-04-06T16:12:54;5.75;;;5.05;;
79361;SDS011;68830;47.566;19.012;2023-04-06T16:15:56;7.38;;;4.82;;
79361;SDS011;68830;47.566;19.012;2023-04-06T16:18:59;6.45;;;5.35;;
79361;SDS011;68830;47.566;19.012;2023-04-06T16:22:01;7.57;;;5.38;;
79361;SDS011;68830;47.566;19.012;2023-04-06T16:25:05;7.20;;;5.40;;
79361;SDS011;68830;47.566;19.012;2023-04-06T16:28:07;6.28;;;5.53;;
79361;SDS011;68830;47.566;19.012;2023-04-06T16:31:15;6.72;;;6.00;;
79361;SDS011;68830;47.566;19.012;2023-04-06T16:34:19;6.50;;;5.55;;
79361;SDS011;68830;47.566;19.012;2023-04-06T16:37:22;10.85;;;7.72;;
79361;SDS011;68830;47.566;19.012;2023-04-06T16:40:28;8.60;;;6.38;;
79361;SDS011;68830;47.566;19.012;2023-04-06T16:43:32;7.38;;;6.68;;
79361;SDS011;68830;47.566;19.012;2023-04-06T16:46:50;8.40;;;6.63;;
79361;SDS011;68830;47.566;19.012;2023-04-06T16:49:54;8.35;;;7.32;;
79361;SDS011;68830;47.566;19.012;2023-04-06T16:53:06;10.15;;;7.40;;
79361;SDS011;68830;47.566;19.012;2023-04-06T16:56:09;10.90;;;9.05;;
79361;SDS011;68830;47.566;19.012;2023-04-06T16:59:11;8.85;;;7.50;;
79361;SDS011;68830;47.566;19.012;2023-04-06T17:02:15;9.57;;;8.40;;
79361;SDS011;68830;47.566;19.012;2023-04-06T17:05:17;9.73;;;8.73;;
79361;SDS011;68830;47.566;19.012;2023-04-06T17:08:25;9.95;;;8.38;;
79361;SDS011;68830;47.566;19.012;2023-04-06T17:11:28;9.80;;;8.80;;
79361;SDS011;68830;47.566;19.012;2023-04-06T17:14:46;11.52;;;9.38;;
79361;SDS011;68830;47.566;19.012;2023-04-06T17:17:48;12.00;;;9.27;;
79361;SDS011;68830;47.566;19.012;2023-04-06T17:20:50;12.18;;;10.95;;
79361;SDS011;68830;47.566;19.012;2023-04-06T17:23:54;13.60;;;11.35;;
79361;SDS011;68830;47.566;19.012;2023-04-06T17:27:04;14.27;;;11.55;;
79361;SDS011;68830;47.566;19.012;2023-04-06T17:30:08;13.93;;;12.55;;
79361;SDS011;68830;47.566;19.012;2023-04-06T17:33:13;14.10;;;12.30;;
79361;SDS011;68830;47.566;19.012;2023-04-06T17:36:18;14.48;;;12.98;;
79361;SDS011;68830;47.566;19.012;2023-04-06T17:39:22;15.45;;;13.90;;
79361;SDS011;68830;47.566;19.012;2023-04-06T17:42:25;15.82;;;14.32;;
79361;SDS011;68830;47.566;19.012;2023-04-06T17:45:28;16.85;;;15.10;;
79361;SDS011;68830;47.566;19.012;2023-04-06T17:48:30;16.67;;;14.35;;
79361;SDS011;68830;47.566;19.012;2023-04-06T17:51:34;17.17;;;15.43;;
79361;SDS011;68830;47.566;19.012;2023-04-06T17:54:36;16.98;;;15.20;;
79361;SDS011;68830;47.566;19.012;2023-04-06T17:57:40;16.80;;;15.07;;
79361;SDS011;68830;47.566;19.012;2023-04-06T18:00:46;18.80;;;16.58;;
79361;SDS011;68830;47.566;19.012;2023-04-06T18:03:51;20.42;;;16.55;;